Terminal Aerodrome Forecast
Issued by NWS Sterling, VA

Current Version | Previous Version | Graphics & Text | Print | Product List | Glossary On
Versions: 1 2 3 4 5 6 7 8 9 10 11 12 13 14 15 16 17 18 19 20 21 22 23 24
000
FTUS41 KLWX 272046 AAA
TAFIAD
TAF AMD
KIAD 272046Z 2721/2824 18014G21KT P6SM SCT050 BKN200
     FM272300 18013G21KT P6SM BKN050
     FM280300 19009KT P6SM OVC040
     FM280500 21005KT P6SM BKN130
     FM280600 22004KT 3SM BR BKN140
     FM281300 33006KT P6SM SCT200
     FM281800 21004KT P6SM FEW250
     FM282300 15006KT P6SM SCT250=

USA.gov is the U.S. government's official web portal to all federal, state and local government web resources and services.